This is the latest recevied weather packets stored in our database for station/object EA1IRT-1. If no packets are shown the sender has not sent any weather packets the latest 10 day(s).
| Time | Temp. | Humidity | Pressure | Rain* | Wind** | Luminosity | Snow |
|---|---|---|---|---|---|---|---|
| 1778186963 | 15.56° C | 92% | 1009.8 hPa | - | - | - | - |
| 1778186063 | 15.56° C | 91% | 1009.7 hPa | - | - | - | - |
| 1778185163 | 15.56° C | 90% | 1009.6 hPa | - | - | - | - |
| 1778184269 | 15.56° C | 93% | 1009.5 hPa | - | - | - | - |
| 1778183362 | 16.11° C | 87% | 1009.2 hPa | - | - | - | - |
| 1778182462 | 16.11° C | 84% | 1009.2 hPa | - | - | - | - |
| 1778181562 | 16.11° C | 82% | 1009.5 hPa | - | - | - | - |
| 1778180662 | 16.67° C | 80% | 1009.5 hPa | - | - | - | - |
| 1778179737 | 16.67° C | 79% | 1009.7 hPa | - | - | - | - |
| 1778178814 | 16.67° C | 79% | 1009.6 hPa | - | - | - | - |
| 1778177914 | 17.22° C | 78% | 1009.7 hPa | - | - | - | - |
| 1778177013 | 17.78° C | 76% | 1009.9 hPa | - | - | - | - |
| 1778176113 | 17.78° C | 77% | 1010 hPa | - | - | - | - |
| 1778175213 | 17.78° C | 75% | 1010.1 hPa | - | - | - | - |
| 1778174313 | 18.33° C | 73% | 1010.1 hPa | - | - | - | - |
| 1778173413 | 17.78° C | 74% | 1009.8 hPa | - | - | - | - |
| 1778172513 | 18.33° C | 70% | 1009.8 hPa | - | - | - | - |
| 1778171613 | 18.33° C | 72% | 1009.7 hPa | - | - | - | - |
| 1778170713 | 19.44° C | 71% | 1009.6 hPa | - | - | - | - |
| 1778169813 | 20° C | 71% | 1009.5 hPa | - | - | - | - |
| 1778168897 | 18.33° C | 78% | 1009.6 hPa | - | - | - | - |
| 1778167964 | 17.78° C | 79% | 1009.6 hPa | - | - | - | - |
| 1778167064 | 18.89° C | 73% | 1009.5 hPa | - | - | - | - |
| 1778166171 | 19.44° C | 69% | 1009.4 hPa | - | - | - | - |
| 1778165264 | 18.89° C | 74% | 1009.2 hPa | - | - | - | - |
* Rain since midnight (hover to see other rain measurements)
** Current wind speed in m/s (hover to see current wind gust speed)